Smiths Falls, Idaho
Current Conditions -  °F | °C
As of 5:35 PM on Friday 28 Nov 2014 (Local Time) from K65S Reporting Station
Overcast Overcast  
Wind Chill: 42°   Ceiling: 2700
Heat Index: 46°   Visibility: 8mi
Dew Point: 43°   Wind: 8mph
Humidity: 87%   Direction: 200°SSW
Pressure: 29.17"   Gusts: NA
Location:  48.95°N, 116.63°W
Report Text: K65S 290135Z AUTO 20007KT 150V220 8SM SCT019 BKN027 OVC035 08/06 A2917 RMK AO2 P0001
Loading
Personal Weather Stations






























Interactive Weather Map New forecast layout! Learn more

10-Day Weather Forecast

Advertisements
Track Severe Weather on mobile